sensor_id;sensor_type;location;lat;lon;timestamp;P1;durP1;ratioP1;P2;durP2;ratioP2
44985;SDS011;30721;49.380;7.736;2024-02-14T00:00:02;2.42;;;0.82;;
44985;SDS011;30721;49.380;7.736;2024-02-14T00:02:28;3.78;;;1.20;;
44985;SDS011;30721;49.380;7.736;2024-02-14T00:04:54;2.95;;;1.20;;
44985;SDS011;30721;49.380;7.736;2024-02-14T00:07:19;3.78;;;1.30;;
44985;SDS011;30721;49.380;7.736;2024-02-14T00:09:46;3.88;;;1.00;;
44985;SDS011;30721;49.380;7.736;2024-02-14T00:12:11;2.67;;;1.70;;
44985;SDS011;30721;49.380;7.736;2024-02-14T00:14:37;2.10;;;1.00;;
44985;SDS011;30721;49.380;7.736;2024-02-14T00:17:03;1.15;;;0.93;;
44985;SDS011;30721;49.380;7.736;2024-02-14T00:19:30;2.78;;;1.10;;
44985;SDS011;30721;49.380;7.736;2024-02-14T00:21:56;2.35;;;0.90;;
44985;SDS011;30721;49.380;7.736;2024-02-14T00:24:21;2.42;;;1.10;;
44985;SDS011;30721;49.380;7.736;2024-02-14T00:26:49;1.85;;;0.80;;
44985;SDS011;30721;49.380;7.736;2024-02-14T00:29:41;2.90;;;0.80;;
44985;SDS011;30721;49.380;7.736;2024-02-14T00:32:09;3.97;;;1.35;;
44985;SDS011;30721;49.380;7.736;2024-02-14T00:34:34;1.77;;;1.27;;
44985;SDS011;30721;49.380;7.736;2024-02-14T00:36:59;7.30;;;1.17;;
44985;SDS011;30721;49.380;7.736;2024-02-14T00:39:25;2.50;;;1.15;;
44985;SDS011;30721;49.380;7.736;2024-02-14T00:41:50;3.22;;;1.20;;
44985;SDS011;30721;49.380;7.736;2024-02-14T00:44:17;2.40;;;1.20;;
44985;SDS011;30721;49.380;7.736;2024-02-14T00:46:43;2.63;;;1.17;;
44985;SDS011;30721;49.380;7.736;2024-02-14T00:49:09;2.90;;;1.20;;
44985;SDS011;30721;49.380;7.736;2024-02-14T00:51:35;4.43;;;1.50;;
44985;SDS011;30721;49.380;7.736;2024-02-14T00:54:02;3.28;;;1.17;;
44985;SDS011;30721;49.380;7.736;2024-02-14T00:56:28;2.35;;;1.23;;
44985;SDS011;30721;49.380;7.736;2024-02-14T00:58:53;2.10;;;1.02;;
44985;SDS011;30721;49.380;7.736;2024-02-14T01:01:18;2.45;;;1.00;;
44985;SDS011;30721;49.380;7.736;2024-02-14T01:03:44;2.88;;;1.48;;
44985;SDS011;30721;49.380;7.736;2024-02-14T01:06:09;3.03;;;1.23;;
44985;SDS011;30721;49.380;7.736;2024-02-14T01:08:34;2.05;;;1.10;;
44985;SDS011;30721;49.380;7.736;2024-02-14T01:11:01;2.10;;;1.20;;
44985;SDS011;30721;49.380;7.736;2024-02-14T01:13:26;3.10;;;1.13;;
44985;SDS011;30721;49.380;7.736;2024-02-14T01:15:52;2.85;;;1.10;;
44985;SDS011;30721;49.380;7.736;2024-02-14T01:18:18;3.72;;;2.15;;
44985;SDS011;30721;49.380;7.736;2024-02-14T01:20:43;2.67;;;1.13;;
44985;SDS011;30721;49.380;7.736;2024-02-14T01:23:08;2.58;;;1.10;;
44985;SDS011;30721;49.380;7.736;2024-02-14T01:25:34;3.25;;;1.30;;
44985;SDS011;30721;49.380;7.736;2024-02-14T01:27:59;1.83;;;1.60;;
44985;SDS011;30721;49.380;7.736;2024-02-14T01:30:25;2.55;;;1.42;;
44985;SDS011;30721;49.380;7.736;2024-02-14T01:32:51;2.17;;;1.10;;
44985;SDS011;30721;49.380;7.736;2024-02-14T01:35:18;3.70;;;1.33;;
44985;SDS011;30721;49.380;7.736;2024-02-14T01:37:43;2.13;;;1.33;;
44985;SDS011;30721;49.380;7.736;2024-02-14T01:40:10;2.75;;;1.27;;
44985;SDS011;30721;49.380;7.736;2024-02-14T01:42:36;2.50;;;1.08;;
44985;SDS011;30721;49.380;7.736;2024-02-14T01:45:01;2.95;;;1.30;;
44985;SDS011;30721;49.380;7.736;2024-02-14T01:47:28;3.03;;;1.65;;
44985;SDS011;30721;49.380;7.736;2024-02-14T01:49:54;1.90;;;1.40;;
44985;SDS011;30721;49.380;7.736;2024-02-14T01:52:19;2.15;;;1.23;;
44985;SDS011;30721;49.380;7.736;2024-02-14T01:54:47;2.88;;;1.33;;
44985;SDS011;30721;49.380;7.736;2024-02-14T01:57:12;3.00;;;1.48;;
44985;SDS011;30721;49.380;7.736;2024-02-14T01:59:37;3.40;;;1.50;;
44985;SDS011;30721;49.380;7.736;2024-02-14T02:02:04;3.25;;;1.20;;
44985;SDS011;30721;49.380;7.736;2024-02-14T02:04:32;2.15;;;1.40;;
44985;SDS011;30721;49.380;7.736;2024-02-14T02:06:58;3.58;;;1.33;;
44985;SDS011;30721;49.380;7.736;2024-02-14T02:09:23;3.40;;;1.38;;
44985;SDS011;30721;49.380;7.736;2024-02-14T02:11:49;2.55;;;1.30;;
44985;SDS011;30721;49.380;7.736;2024-02-14T02:14:15;2.17;;;1.17;;
44985;SDS011;30721;49.380;7.736;2024-02-14T02:16:41;2.95;;;1.42;;
44985;SDS011;30721;49.380;7.736;2024-02-14T02:19:07;2.58;;;1.10;;
44985;SDS011;30721;49.380;7.736;2024-02-14T02:21:37;2.83;;;1.20;;
44985;SDS011;30721;49.380;7.736;2024-02-14T02:24:03;5.10;;;1.55;;
44985;SDS011;30721;49.380;7.736;2024-02-14T02:26:29;4.43;;;1.67;;
44985;SDS011;30721;49.380;7.736;2024-02-14T02:28:54;2.63;;;1.40;;
44985;SDS011;30721;49.380;7.736;2024-02-14T02:31:19;2.92;;;1.20;;
44985;SDS011;30721;49.380;7.736;2024-02-14T02:33:45;1.92;;;1.17;;
44985;SDS011;30721;49.380;7.736;2024-02-14T02:36:11;3.55;;;1.67;;
44985;SDS011;30721;49.380;7.736;2024-02-14T02:38:36;1.88;;;1.23;;
44985;SDS011;30721;49.380;7.736;2024-02-14T02:41:02;2.53;;;1.88;;
44985;SDS011;30721;49.380;7.736;2024-02-14T02:43:31;3.40;;;1.90;;
44985;SDS011;30721;49.380;7.736;2024-02-14T02:45:57;4.28;;;1.83;;
44985;SDS011;30721;49.380;7.736;2024-02-14T02:48:23;2.63;;;1.05;;
44985;SDS011;30721;49.380;7.736;2024-02-14T02:50:48;3.45;;;1.20;;
44985;SDS011;30721;49.380;7.736;2024-02-14T02:53:14;2.70;;;1.05;;
44985;SDS011;30721;49.380;7.736;2024-02-14T02:55:40;3.50;;;1.13;;
44985;SDS011;30721;49.380;7.736;2024-02-14T02:58:09;2.80;;;1.45;;
44985;SDS011;30721;49.380;7.736;2024-02-14T03:00:35;3.80;;;1.10;;
44985;SDS011;30721;49.380;7.736;2024-02-14T03:03:00;3.10;;;1.65;;
44985;SDS011;30721;49.380;7.736;2024-02-14T03:05:27;3.17;;;1.20;;
44985;SDS011;30721;49.380;7.736;2024-02-14T03:07:54;2.50;;;0.82;;
44985;SDS011;30721;49.380;7.736;2024-02-14T03:10:22;2.30;;;1.27;;
44985;SDS011;30721;49.380;7.736;2024-02-14T03:12:48;3.25;;;1.83;;
44985;SDS011;30721;49.380;7.736;2024-02-14T03:15:14;2.15;;;1.33;;
44985;SDS011;30721;49.380;7.736;2024-02-14T03:17:39;1.88;;;1.00;;
44985;SDS011;30721;49.380;7.736;2024-02-14T03:20:05;3.78;;;1.15;;
44985;SDS011;30721;49.380;7.736;2024-02-14T03:22:40;3.83;;;1.30;;
44985;SDS011;30721;49.380;7.736;2024-02-14T03:25:18;2.63;;;1.00;;
44985;SDS011;30721;49.380;7.736;2024-02-14T03:27:44;3.17;;;1.65;;
44985;SDS011;30721;49.380;7.736;2024-02-14T03:30:16;3.42;;;1.17;;
44985;SDS011;30721;49.380;7.736;2024-02-14T03:32:42;2.38;;;1.20;;
44985;SDS011;30721;49.380;7.736;2024-02-14T03:35:08;2.80;;;1.20;;
44985;SDS011;30721;49.380;7.736;2024-02-14T03:37:36;4.93;;;1.50;;
44985;SDS011;30721;49.380;7.736;2024-02-14T03:40:04;2.92;;;1.10;;
44985;SDS011;30721;49.380;7.736;2024-02-14T03:42:30;2.00;;;1.00;;
44985;SDS011;30721;49.380;7.736;2024-02-14T03:44:56;4.00;;;1.42;;
44985;SDS011;30721;49.380;7.736;2024-02-14T03:47:28;2.25;;;1.40;;
44985;SDS011;30721;49.380;7.736;2024-02-14T03:49:54;4.28;;;1.63;;
44985;SDS011;30721;49.380;7.736;2024-02-14T03:52:20;2.33;;;1.40;;
44985;SDS011;30721;49.380;7.736;2024-02-14T03:54:47;2.47;;;1.38;;
44985;SDS011;30721;49.380;7.736;2024-02-14T03:57:13;3.05;;;1.30;;
44985;SDS011;30721;49.380;7.736;2024-02-14T03:59:38;3.85;;;1.55;;
44985;SDS011;30721;49.380;7.736;2024-02-14T04:02:04;3.50;;;1.27;;
44985;SDS011;30721;49.380;7.736;2024-02-14T04:04:32;6.05;;;1.60;;
44985;SDS011;30721;49.380;7.736;2024-02-14T04:06:58;3.63;;;1.20;;
44985;SDS011;30721;49.380;7.736;2024-02-14T04:09:26;3.90;;;1.70;;
44985;SDS011;30721;49.380;7.736;2024-02-14T04:11:51;2.67;;;1.02;;
44985;SDS011;30721;49.380;7.736;2024-02-14T04:14:17;2.78;;;1.40;;
44985;SDS011;30721;49.380;7.736;2024-02-14T04:16:42;1.88;;;1.10;;
44985;SDS011;30721;49.380;7.736;2024-02-14T04:19:11;4.43;;;1.30;;
44985;SDS011;30721;49.380;7.736;2024-02-14T04:21:38;3.80;;;1.33;;
44985;SDS011;30721;49.380;7.736;2024-02-14T04:24:03;2.30;;;1.15;;
44985;SDS011;30721;49.380;7.736;2024-02-14T04:26:29;4.72;;;1.50;;
44985;SDS011;30721;49.380;7.736;2024-02-14T04:28:54;2.58;;;1.70;;
44985;SDS011;30721;49.380;7.736;2024-02-14T04:31:19;2.55;;;1.25;;
44985;SDS011;30721;49.380;7.736;2024-02-14T04:33:45;2.38;;;1.52;;
44985;SDS011;30721;49.380;7.736;2024-02-14T04:36:17;4.65;;;1.55;;
44985;SDS011;30721;49.380;7.736;2024-02-14T04:38:46;2.17;;;1.10;;
44985;SDS011;30721;49.380;7.736;2024-02-14T04:41:11;5.63;;;1.73;;
44985;SDS011;30721;49.380;7.736;2024-02-14T04:43:37;2.78;;;1.40;;
44985;SDS011;30721;49.380;7.736;2024-02-14T04:46:02;3.33;;;1.30;;
44985;SDS011;30721;49.380;7.736;2024-02-14T04:48:32;2.58;;;1.20;;
44985;SDS011;30721;49.380;7.736;2024-02-14T04:50:57;2.08;;;1.30;;
44985;SDS011;30721;49.380;7.736;2024-02-14T04:53:23;2.65;;;1.30;;
44985;SDS011;30721;49.380;7.736;2024-02-14T04:55:48;3.55;;;1.60;;
44985;SDS011;30721;49.380;7.736;2024-02-14T04:58:13;3.90;;;1.15;;
44985;SDS011;30721;49.380;7.736;2024-02-14T05:00:39;2.17;;;1.15;;
44985;SDS011;30721;49.380;7.736;2024-02-14T05:03:05;2.63;;;1.10;;
44985;SDS011;30721;49.380;7.736;2024-02-14T05:05:30;2.83;;;1.63;;
44985;SDS011;30721;49.380;7.736;2024-02-14T05:07:55;1.98;;;1.48;;
44985;SDS011;30721;49.380;7.736;2024-02-14T05:10:21;4.22;;;2.05;;
44985;SDS011;30721;49.380;7.736;2024-02-14T05:12:46;2.53;;;1.23;;
44985;SDS011;30721;49.380;7.736;2024-02-14T05:15:12;6.22;;;2.20;;
44985;SDS011;30721;49.380;7.736;2024-02-14T05:17:38;2.10;;;1.17;;
44985;SDS011;30721;49.380;7.736;2024-02-14T05:20:05;2.83;;;1.20;;
44985;SDS011;30721;49.380;7.736;2024-02-14T05:22:34;1.75;;;1.10;;
44985;SDS011;30721;49.380;7.736;2024-02-14T05:25:01;3.90;;;1.30;;
44985;SDS011;30721;49.380;7.736;2024-02-14T05:27:27;2.33;;;1.20;;
44985;SDS011;30721;49.380;7.736;2024-02-14T05:29:52;7.38;;;2.05;;
44985;SDS011;30721;49.380;7.736;2024-02-14T05:32:18;3.55;;;1.52;;
44985;SDS011;30721;49.380;7.736;2024-02-14T05:34:43;3.47;;;1.52;;
44985;SDS011;30721;49.380;7.736;2024-02-14T05:37:09;5.70;;;2.00;;
44985;SDS011;30721;49.380;7.736;2024-02-14T05:39:34;2.58;;;1.42;;
44985;SDS011;30721;49.380;7.736;2024-02-14T05:41:59;2.83;;;1.40;;
44985;SDS011;30721;49.380;7.736;2024-02-14T05:44:25;3.70;;;1.50;;
44985;SDS011;30721;49.380;7.736;2024-02-14T05:46:52;5.03;;;1.52;;
44985;SDS011;30721;49.380;7.736;2024-02-14T05:49:18;3.63;;;1.38;;
44985;SDS011;30721;49.380;7.736;2024-02-14T05:51:43;4.75;;;2.45;;
44985;SDS011;30721;49.380;7.736;2024-02-14T05:54:08;2.67;;;1.48;;
44985;SDS011;30721;49.380;7.736;2024-02-14T05:56:34;4.15;;;1.80;;
44985;SDS011;30721;49.380;7.736;2024-02-14T05:58:59;2.70;;;1.80;;
44985;SDS011;30721;49.380;7.736;2024-02-14T06:01:24;4.22;;;1.98;;
44985;SDS011;30721;49.380;7.736;2024-02-14T06:03:53;2.40;;;1.73;;
44985;SDS011;30721;49.380;7.736;2024-02-14T06:06:18;3.65;;;2.10;;
44985;SDS011;30721;49.380;7.736;2024-02-14T06:08:44;2.67;;;1.85;;
44985;SDS011;30721;49.380;7.736;2024-02-14T06:11:09;3.38;;;2.10;;
44985;SDS011;30721;49.380;7.736;2024-02-14T06:13:35;2.90;;;2.00;;
44985;SDS011;30721;49.380;7.736;2024-02-14T06:16:03;4.55;;;2.58;;
44985;SDS011;30721;49.380;7.736;2024-02-14T06:18:29;6.43;;;2.30;;
44985;SDS011;30721;49.380;7.736;2024-02-14T06:20:54;2.88;;;1.90;;
44985;SDS011;30721;49.380;7.736;2024-02-14T06:23:19;5.13;;;2.05;;
44985;SDS011;30721;49.380;7.736;2024-02-14T06:25:45;3.80;;;2.30;;
44985;SDS011;30721;49.380;7.736;2024-02-14T06:28:10;3.92;;;2.22;;
44985;SDS011;30721;49.380;7.736;2024-02-14T06:30:36;3.33;;;2.28;;
44985;SDS011;30721;49.380;7.736;2024-02-14T06:33:01;3.90;;;2.42;;
44985;SDS011;30721;49.380;7.736;2024-02-14T06:35:27;4.15;;;2.17;;
44985;SDS011;30721;49.380;7.736;2024-02-14T06:37:53;3.47;;;1.98;;
44985;SDS011;30721;49.380;7.736;2024-02-14T06:40:19;4.20;;;2.40;;
44985;SDS011;30721;49.380;7.736;2024-02-14T06:42:45;4.60;;;2.90;;
44985;SDS011;30721;49.380;7.736;2024-02-14T06:45:10;3.72;;;2.40;;
44985;SDS011;30721;49.380;7.736;2024-02-14T06:47:36;4.47;;;2.78;;
44985;SDS011;30721;49.380;7.736;2024-02-14T06:50:01;4.28;;;2.13;;
44985;SDS011;30721;49.380;7.736;2024-02-14T06:52:27;5.32;;;3.50;;
44985;SDS011;30721;49.380;7.736;2024-02-14T06:54:52;4.03;;;3.15;;
44985;SDS011;30721;49.380;7.736;2024-02-14T06:57:17;5.10;;;2.50;;
44985;SDS011;30721;49.380;7.736;2024-02-14T06:59:43;4.22;;;2.60;;
44985;SDS011;30721;49.380;7.736;2024-02-14T07:02:08;5.90;;;3.05;;
44985;SDS011;30721;49.380;7.736;2024-02-14T07:04:33;4.63;;;3.22;;
44985;SDS011;30721;49.380;7.736;2024-02-14T07:06:59;9.10;;;3.90;;
44985;SDS011;30721;49.380;7.736;2024-02-14T07:09:25;4.40;;;3.10;;
44985;SDS011;30721;49.380;7.736;2024-02-14T07:11:51;5.50;;;3.10;;
44985;SDS011;30721;49.380;7.736;2024-02-14T07:14:18;4.18;;;3.05;;
44985;SDS011;30721;49.380;7.736;2024-02-14T07:16:44;3.67;;;2.97;;
44985;SDS011;30721;49.380;7.736;2024-02-14T07:19:10;5.40;;;2.88;;
44985;SDS011;30721;49.380;7.736;2024-02-14T07:21:35;6.50;;;2.72;;
44985;SDS011;30721;49.380;7.736;2024-02-14T07:24:03;6.60;;;3.08;;
44985;SDS011;30721;49.380;7.736;2024-02-14T07:26:30;4.55;;;2.70;;
44985;SDS011;30721;49.380;7.736;2024-02-14T07:28:55;4.20;;;2.53;;
44985;SDS011;30721;49.380;7.736;2024-02-14T07:31:20;8.65;;;3.58;;
44985;SDS011;30721;49.380;7.736;2024-02-14T07:33:46;5.43;;;3.08;;
44985;SDS011;30721;49.380;7.736;2024-02-14T07:36:12;6.03;;;3.00;;
44985;SDS011;30721;49.380;7.736;2024-02-14T07:38:38;4.20;;;3.30;;
44985;SDS011;30721;49.380;7.736;2024-02-14T07:41:03;5.47;;;2.83;;
44985;SDS011;30721;49.380;7.736;2024-02-14T07:43:29;5.82;;;3.20;;
44985;SDS011;30721;49.380;7.736;2024-02-14T07:45:54;4.60;;;3.00;;
44985;SDS011;30721;49.380;7.736;2024-02-14T07:48:19;4.75;;;2.55;;
44985;SDS011;30721;49.380;7.736;2024-02-14T07:50:47;5.60;;;2.70;;
44985;SDS011;30721;49.380;7.736;2024-02-14T07:53:13;6.35;;;3.92;;
44985;SDS011;30721;49.380;7.736;2024-02-14T07:55:38;5.43;;;3.22;;
44985;SDS011;30721;49.380;7.736;2024-02-14T07:58:05;5.05;;;3.15;;
44985;SDS011;30721;49.380;7.736;2024-02-14T08:00:30;5.78;;;3.75;;
44985;SDS011;30721;49.380;7.736;2024-02-14T08:02:55;5.82;;;2.90;;
44985;SDS011;30721;49.380;7.736;2024-02-14T08:05:21;5.32;;;3.03;;
44985;SDS011;30721;49.380;7.736;2024-02-14T08:07:46;3.35;;;2.75;;
44985;SDS011;30721;49.380;7.736;2024-02-14T08:10:12;5.97;;;3.08;;
44985;SDS011;30721;49.380;7.736;2024-02-14T08:12:37;6.55;;;3.13;;
44985;SDS011;30721;49.380;7.736;2024-02-14T08:15:03;4.75;;;3.00;;
44985;SDS011;30721;49.380;7.736;2024-02-14T08:17:31;6.03;;;3.38;;
44985;SDS011;30721;49.380;7.736;2024-02-14T08:19:56;5.00;;;2.83;;
44985;SDS011;30721;49.380;7.736;2024-02-14T08:22:22;5.07;;;3.58;;
44985;SDS011;30721;49.380;7.736;2024-02-14T08:24:47;8.50;;;3.65;;
44985;SDS011;30721;49.380;7.736;2024-02-14T08:27:12;5.72;;;3.40;;
44985;SDS011;30721;49.380;7.736;2024-02-14T08:29:38;5.43;;;2.90;;
44985;SDS011;30721;49.380;7.736;2024-02-14T08:32:03;4.25;;;3.10;;
44985;SDS011;30721;49.380;7.736;2024-02-14T08:34:30;3.88;;;2.72;;
44985;SDS011;30721;49.380;7.736;2024-02-14T08:36:55;8.18;;;3.53;;
44985;SDS011;30721;49.380;7.736;2024-02-14T08:39:21;3.78;;;2.78;;
44985;SDS011;30721;49.380;7.736;2024-02-14T08:41:46;4.72;;;3.65;;
44985;SDS011;30721;49.380;7.736;2024-02-14T08:44:12;4.78;;;3.00;;
44985;SDS011;30721;49.380;7.736;2024-02-14T08:46:38;6.88;;;2.90;;
44985;SDS011;30721;49.380;7.736;2024-02-14T08:49:04;5.95;;;3.13;;
44985;SDS011;30721;49.380;7.736;2024-02-14T08:51:36;4.25;;;3.15;;
44985;SDS011;30721;49.380;7.736;2024-02-14T08:54:03;5.13;;;2.95;;
44985;SDS011;30721;49.380;7.736;2024-02-14T08:56:34;5.28;;;3.63;;
44985;SDS011;30721;49.380;7.736;2024-02-14T08:59:00;4.88;;;2.95;;
44985;SDS011;30721;49.380;7.736;2024-02-14T09:01:29;6.32;;;3.40;;
44985;SDS011;30721;49.380;7.736;2024-02-14T09:03:55;6.32;;;3.97;;
44985;SDS011;30721;49.380;7.736;2024-02-14T09:06:21;7.05;;;3.40;;
44985;SDS011;30721;49.380;7.736;2024-02-14T09:08:46;5.65;;;3.75;;
44985;SDS011;30721;49.380;7.736;2024-02-14T09:11:12;6.30;;;3.65;;
44985;SDS011;30721;49.380;7.736;2024-02-14T09:13:38;5.72;;;3.28;;
44985;SDS011;30721;49.380;7.736;2024-02-14T09:16:06;5.22;;;3.53;;
44985;SDS011;30721;49.380;7.736;2024-02-14T09:18:32;5.00;;;4.28;;
44985;SDS011;30721;49.380;7.736;2024-02-14T09:20:58;6.57;;;3.97;;
44985;SDS011;30721;49.380;7.736;2024-02-14T09:23:23;8.40;;;3.75;;
44985;SDS011;30721;49.380;7.736;2024-02-14T09:25:49;6.45;;;4.18;;
44985;SDS011;30721;49.380;7.736;2024-02-14T09:28:17;4.60;;;3.25;;
44985;SDS011;30721;49.380;7.736;2024-02-14T09:30:43;6.30;;;3.33;;
44985;SDS011;30721;49.380;7.736;2024-02-14T09:33:09;5.20;;;3.85;;
44985;SDS011;30721;49.380;7.736;2024-02-14T09:35:34;6.45;;;3.80;;
44985;SDS011;30721;49.380;7.736;2024-02-14T09:38:03;4.10;;;3.28;;
44985;SDS011;30721;49.380;7.736;2024-02-14T09:40:29;4.63;;;3.53;;
44985;SDS011;30721;49.380;7.736;2024-02-14T09:42:54;5.97;;;3.78;;
44985;SDS011;30721;49.380;7.736;2024-02-14T09:45:23;7.03;;;3.30;;
44985;SDS011;30721;49.380;7.736;2024-02-14T09:47:50;4.75;;;3.25;;
44985;SDS011;30721;49.380;7.736;2024-02-14T09:50:16;4.15;;;3.28;;
44985;SDS011;30721;49.380;7.736;2024-02-14T09:52:42;5.15;;;3.50;;
44985;SDS011;30721;49.380;7.736;2024-02-14T09:55:08;6.18;;;3.85;;
44985;SDS011;30721;49.380;7.736;2024-02-14T09:57:34;6.38;;;3.88;;
44985;SDS011;30721;49.380;7.736;2024-02-14T10:00:00;4.88;;;3.70;;
44985;SDS011;30721;49.380;7.736;2024-02-14T10:02:27;9.00;;;4.00;;
44985;SDS011;30721;49.380;7.736;2024-02-14T10:04:53;7.63;;;3.70;;
44985;SDS011;30721;49.380;7.736;2024-02-14T10:07:19;5.38;;;3.65;;
44985;SDS011;30721;49.380;7.736;2024-02-14T10:09:44;5.25;;;3.65;;
44985;SDS011;30721;49.380;7.736;2024-02-14T10:12:09;4.40;;;3.67;;
44985;SDS011;30721;49.380;7.736;2024-02-14T10:14:35;4.20;;;3.22;;
44985;SDS011;30721;49.380;7.736;2024-02-14T10:17:05;5.32;;;3.90;;
44985;SDS011;30721;49.380;7.736;2024-02-14T10:19:31;5.05;;;3.70;;
44985;SDS011;30721;49.380;7.736;2024-02-14T10:21:59;5.38;;;3.67;;
44985;SDS011;30721;49.380;7.736;2024-02-14T10:24:28;5.47;;;3.92;;
44985;SDS011;30721;49.380;7.736;2024-02-14T10:26:55;5.05;;;3.67;;
44985;SDS011;30721;49.380;7.736;2024-02-14T10:29:22;4.05;;;3.50;;
44985;SDS011;30721;49.380;7.736;2024-02-14T10:31:48;5.25;;;3.90;;
44985;SDS011;30721;49.380;7.736;2024-02-14T10:34:14;6.15;;;4.10;;
44985;SDS011;30721;49.380;7.736;2024-02-14T10:36:39;6.32;;;3.60;;
44985;SDS011;30721;49.380;7.736;2024-02-14T10:39:06;6.65;;;3.78;;
44985;SDS011;30721;49.380;7.736;2024-02-14T10:41:33;4.90;;;3.75;;
44985;SDS011;30721;49.380;7.736;2024-02-14T10:44:03;5.93;;;4.15;;
44985;SDS011;30721;49.380;7.736;2024-02-14T10:46:31;9.50;;;4.03;;
44985;SDS011;30721;49.380;7.736;2024-02-14T10:49:04;5.43;;;4.15;;
44985;SDS011;30721;49.380;7.736;2024-02-14T10:51:31;4.85;;;3.78;;
44985;SDS011;30721;49.380;7.736;2024-02-14T10:53:58;9.77;;;3.97;;
44985;SDS011;30721;49.380;7.736;2024-02-14T10:56:28;5.53;;;3.65;;
44985;SDS011;30721;49.380;7.736;2024-02-14T10:58:55;5.05;;;4.43;;
44985;SDS011;30721;49.380;7.736;2024-02-14T11:01:24;5.68;;;4.15;;
44985;SDS011;30721;49.380;7.736;2024-02-14T11:03:51;6.13;;;3.58;;
44985;SDS011;30721;49.380;7.736;2024-02-14T11:06:16;6.88;;;3.80;;
44985;SDS011;30721;49.380;7.736;2024-02-14T11:08:57;4.53;;;3.83;;
44985;SDS011;30721;49.380;7.736;2024-02-14T11:11:30;6.47;;;3.85;;
44985;SDS011;30721;49.380;7.736;2024-02-14T11:13:57;7.13;;;3.72;;
44985;SDS011;30721;49.380;7.736;2024-02-14T11:16:26;5.47;;;4.10;;
44985;SDS011;30721;49.380;7.736;2024-02-14T11:19:08;5.07;;;3.72;;
44985;SDS011;30721;49.380;7.736;2024-02-14T11:21:40;6.13;;;3.88;;
44985;SDS011;30721;49.380;7.736;2024-02-14T11:24:14;5.50;;;3.45;;
44985;SDS011;30721;49.380;7.736;2024-02-14T11:26:48;6.25;;;3.78;;
44985;SDS011;30721;49.380;7.736;2024-02-14T11:29:20;4.70;;;3.67;;
44985;SDS011;30721;49.380;7.736;2024-02-14T11:31:46;4.85;;;4.38;;
44985;SDS011;30721;49.380;7.736;2024-02-14T11:34:15;7.43;;;4.43;;
44985;SDS011;30721;49.380;7.736;2024-02-14T11:36:41;5.35;;;3.80;;
44985;SDS011;30721;49.380;7.736;2024-02-14T11:39:07;6.40;;;3.95;;
44985;SDS011;30721;49.380;7.736;2024-02-14T11:41:32;5.63;;;4.28;;
44985;SDS011;30721;49.380;7.736;2024-02-14T11:44:02;4.78;;;3.67;;
44985;SDS011;30721;49.380;7.736;2024-02-14T11:46:36;6.07;;;4.40;;
44985;SDS011;30721;49.380;7.736;2024-02-14T11:49:02;4.28;;;3.38;;
44985;SDS011;30721;49.380;7.736;2024-02-14T11:51:29;5.38;;;3.47;;
44985;SDS011;30721;49.380;7.736;2024-02-14T11:53:56;7.90;;;4.40;;
44985;SDS011;30721;49.380;7.736;2024-02-14T11:56:29;4.47;;;3.35;;
44985;SDS011;30721;49.380;7.736;2024-02-14T11:59:05;5.28;;;3.33;;
44985;SDS011;30721;49.380;7.736;2024-02-14T12:01:31;4.97;;;3.42;;
44985;SDS011;30721;49.380;7.736;2024-02-14T12:03:59;6.25;;;3.63;;
44985;SDS011;30721;49.380;7.736;2024-02-14T12:06:29;4.93;;;3.85;;
44985;SDS011;30721;49.380;7.736;2024-02-14T12:08:56;3.63;;;3.17;;
44985;SDS011;30721;49.380;7.736;2024-02-14T12:11:22;4.63;;;3.65;;
44985;SDS011;30721;49.380;7.736;2024-02-14T12:13:50;4.53;;;3.42;;
44985;SDS011;30721;49.380;7.736;2024-02-14T12:16:19;5.57;;;3.88;;
44985;SDS011;30721;49.380;7.736;2024-02-14T12:18:45;3.70;;;3.08;;
44985;SDS011;30721;49.380;7.736;2024-02-14T12:21:11;5.47;;;3.30;;
44985;SDS011;30721;49.380;7.736;2024-02-14T12:23:37;3.00;;;2.70;;
44985;SDS011;30721;49.380;7.736;2024-02-14T12:26:03;3.33;;;2.70;;
44985;SDS011;30721;49.380;7.736;2024-02-14T12:28:32;3.30;;;2.55;;
44985;SDS011;30721;49.380;7.736;2024-02-14T12:30:58;4.55;;;2.80;;
44985;SDS011;30721;49.380;7.736;2024-02-14T12:33:24;2.45;;;2.13;;
44985;SDS011;30721;49.380;7.736;2024-02-14T12:35:50;2.97;;;2.75;;
44985;SDS011;30721;49.380;7.736;2024-02-14T12:38:17;3.38;;;2.67;;
44985;SDS011;30721;49.380;7.736;2024-02-14T12:40:43;3.05;;;2.35;;
44985;SDS011;30721;49.380;7.736;2024-02-14T12:43:13;2.13;;;1.90;;
44985;SDS011;30721;49.380;7.736;2024-02-14T12:45:40;2.72;;;2.30;;
44985;SDS011;30721;49.380;7.736;2024-02-14T12:48:06;1.73;;;1.60;;
44985;SDS011;30721;49.380;7.736;2024-02-14T12:50:38;2.25;;;2.05;;
44985;SDS011;30721;49.380;7.736;2024-02-14T12:53:04;1.90;;;1.55;;
44985;SDS011;30721;49.380;7.736;2024-02-14T12:55:29;1.40;;;1.30;;
44985;SDS011;30721;49.380;7.736;2024-02-14T12:57:55;2.17;;;1.88;;
44985;SDS011;30721;49.380;7.736;2024-02-14T13:00:21;1.67;;;1.40;;
44985;SDS011;30721;49.380;7.736;2024-02-14T13:02:47;2.58;;;1.50;;
44985;SDS011;30721;49.380;7.736;2024-02-14T13:05:13;2.08;;;1.60;;
44985;SDS011;30721;49.380;7.736;2024-02-14T13:07:40;1.60;;;1.45;;
44985;SDS011;30721;49.380;7.736;2024-02-14T13:10:06;1.50;;;1.40;;
44985;SDS011;30721;49.380;7.736;2024-02-14T13:12:34;3.00;;;1.55;;
44985;SDS011;30721;49.380;7.736;2024-02-14T13:15:00;1.63;;;1.52;;
44985;SDS011;30721;49.380;7.736;2024-02-14T13:17:26;1.90;;;1.73;;
44985;SDS011;30721;49.380;7.736;2024-02-14T13:19:52;1.60;;;1.50;;
44985;SDS011;30721;49.380;7.736;2024-02-14T13:22:18;2.05;;;1.70;;
44985;SDS011;30721;49.380;7.736;2024-02-14T13:24:44;2.40;;;1.95;;
44985;SDS011;30721;49.380;7.736;2024-02-14T13:27:09;2.20;;;2.00;;
44985;SDS011;30721;49.380;7.736;2024-02-14T13:29:35;3.13;;;1.83;;
44985;SDS011;30721;49.380;7.736;2024-02-14T13:32:00;2.10;;;1.90;;
44985;SDS011;30721;49.380;7.736;2024-02-14T13:34:27;2.67;;;2.13;;
44985;SDS011;30721;49.380;7.736;2024-02-14T13:36:53;2.40;;;1.77;;
44985;SDS011;30721;49.380;7.736;2024-02-14T13:39:19;3.70;;;1.90;;
44985;SDS011;30721;49.380;7.736;2024-02-14T13:41:44;2.38;;;2.17;;
44985;SDS011;30721;49.380;7.736;2024-02-14T13:44:10;2.80;;;2.53;;
44985;SDS011;30721;49.380;7.736;2024-02-14T13:46:36;2.80;;;2.30;;
44985;SDS011;30721;49.380;7.736;2024-02-14T13:49:02;2.97;;;2.67;;
44985;SDS011;30721;49.380;7.736;2024-02-14T13:51:27;3.08;;;2.78;;
44985;SDS011;30721;49.380;7.736;2024-02-14T13:53:53;2.90;;;2.63;;
44985;SDS011;30721;49.380;7.736;2024-02-14T13:56:22;3.42;;;2.55;;
44985;SDS011;30721;49.380;7.736;2024-02-14T13:58:48;3.10;;;2.72;;
44985;SDS011;30721;49.380;7.736;2024-02-14T14:01:14;2.90;;;2.60;;
44985;SDS011;30721;49.380;7.736;2024-02-14T14:03:40;3.15;;;2.85;;
44985;SDS011;30721;49.380;7.736;2024-02-14T14:06:06;3.50;;;2.88;;
44985;SDS011;30721;49.380;7.736;2024-02-14T14:08:33;4.63;;;3.55;;
44985;SDS011;30721;49.380;7.736;2024-02-14T14:10:59;3.83;;;3.42;;
44985;SDS011;30721;49.380;7.736;2024-02-14T14:13:24;5.35;;;3.88;;
44985;SDS011;30721;49.380;7.736;2024-02-14T14:15:54;4.55;;;3.20;;
44985;SDS011;30721;49.380;7.736;2024-02-14T14:18:20;4.10;;;3.25;;
44985;SDS011;30721;49.380;7.736;2024-02-14T14:20:46;3.78;;;3.35;;
44985;SDS011;30721;49.380;7.736;2024-02-14T14:23:11;3.20;;;2.83;;
44985;SDS011;30721;49.380;7.736;2024-02-14T14:25:36;2.92;;;2.55;;
44985;SDS011;30721;49.380;7.736;2024-02-14T14:28:02;3.50;;;2.58;;
44985;SDS011;30721;49.380;7.736;2024-02-14T14:30:28;3.15;;;2.65;;
44985;SDS011;30721;49.380;7.736;2024-02-14T14:32:53;2.58;;;2.33;;
44985;SDS011;30721;49.380;7.736;2024-02-14T14:35:18;2.83;;;2.53;;
44985;SDS011;30721;49.380;7.736;2024-02-14T14:37:44;3.13;;;2.30;;
44985;SDS011;30721;49.380;7.736;2024-02-14T14:40:10;3.10;;;2.70;;
44985;SDS011;30721;49.380;7.736;2024-02-14T14:42:36;3.08;;;2.83;;